Time;durP1;ratioP1;P1;durP2;ratioP2;P2;SDS_P1;SDS_P2;PMS_P1;PMS_P2;Temp;Humidity;BMP_temperature;BMP_pressure;BME280_temperature;BME280_humidity;BME280_pressure;Samples;Min_cycle;Max_cycle;Signal;HPM_P1;HPM_P2
2022/10/02 00:02:12;;;;;;;;;;;11.90;99.90;;;;;;5125141;27;19972;-82
2022/10/02 00:04:56;;;;;;;;;;;11.90;99.90;;;;;;5120662;27;20398;-82
2022/10/02 00:07:27;;;;;;;;;;;11.90;99.90;;;;;;5103755;27;20402;-82
2022/10/02 00:09:58;;;;;;;;;;;11.90;99.90;;;;;;5120701;27;19915;-82
2022/10/02 00:12:25;;;;;;;;;;;11.90;99.90;;;;;;5125917;27;19934;-82
2022/10/02 00:14:54;;;;;;;;;;;11.90;99.90;;;;;;5107252;27;19915;-82
2022/10/02 00:17:22;;;;;;;;;;;11.90;99.90;;;;;;5124906;27;20368;-82
2022/10/02 00:19:51;;;;;;;;;;;11.90;99.90;;;;;;5109177;27;19981;-83
2022/10/02 00:22:26;;;;;;;;;;;11.90;99.90;;;;;;5123357;27;19915;-83
2022/10/02 00:24:57;;;;;;;;;;;11.90;99.90;;;;;;5125836;27;19926;-82
2022/10/02 00:27:32;;;;;;;;;;;11.90;99.90;;;;;;5125768;27;20273;-82
2022/10/02 00:29:59;;;;;;;;;;;11.90;99.90;;;;;;5122043;27;19915;-82
2022/10/02 00:32:36;;;;;;;;;;;11.90;99.90;;;;;;5106779;27;19926;-82
2022/10/02 00:35:25;;;;;;;;;;;11.90;99.90;;;;;;5107966;27;19922;-82
2022/10/02 00:38:02;;;;;;;;;;;11.90;99.90;;;;;;5125828;27;20269;-82
2022/10/02 00:40:36;;;;;;;;;;;11.90;99.90;;;;;;5125375;27;19927;-82
2022/10/02 00:43:02;;;;;;;;;;;11.80;99.90;;;;;;5120148;27;19915;-82
2022/10/02 00:45:38;;;;;;;;;;;11.90;99.90;;;;;;5114550;27;19947;-82
2022/10/02 00:48:22;;;;;;;;;;;11.90;99.90;;;;;;5114971;27;19919;-82
2022/10/02 00:51:06;;;;;;;;;;;11.90;99.90;;;;;;5114493;27;19916;-82
2022/10/02 00:53:39;;;;;;;;;;;11.90;99.90;;;;;;5114647;27;19964;-82
2022/10/02 00:56:20;;;;;;;;;;;11.90;99.90;;;;;;5131900;27;19915;-82
2022/10/02 00:59:00;;;;;;;;;;;11.90;99.90;;;;;;5114626;27;19919;-82
2022/10/02 01:01:40;;;;;;;;;;;11.90;99.90;;;;;;5097317;28;20360;-82
2022/10/02 01:04:09;;;;;;;;;;;11.90;99.90;;;;;;5115000;28;19937;-82
2022/10/02 01:06:35;;;;;;;;;;;11.90;99.90;;;;;;5114868;27;20280;-82
2022/10/02 01:09:01;;;;;;;;;;;11.90;99.90;;;;;;5114590;28;20397;-82
2022/10/02 01:11:26;;;;;;;;;;;11.90;99.90;;;;;;5114689;28;19915;-82
2022/10/02 01:13:52;;;;;;;;;;;11.90;99.90;;;;;;5114676;28;19922;-82
2022/10/02 01:16:17;;;;;;;;;;;11.90;99.90;;;;;;5097485;28;20261;-82
2022/10/02 01:18:46;;;;;;;;;;;11.80;99.90;;;;;;5114020;28;19927;-83
2022/10/02 01:21:35;;;;;;;;;;;11.80;99.90;;;;;;5114171;28;20369;-83
2022/10/02 01:24:04;;;;;;;;;;;11.80;99.90;;;;;;5100719;28;19916;-82
2022/10/02 01:26:29;;;;;;;;;;;11.80;99.90;;;;;;5114795;28;19968;-83
2022/10/02 01:28:55;;;;;;;;;;;11.80;99.90;;;;;;5114394;28;19915;-83
2022/10/02 01:31:23;;;;;;;;;;;11.80;99.90;;;;;;5113618;28;19923;-82
2022/10/02 01:33:49;;;;;;;;;;;11.80;99.90;;;;;;5114457;28;19915;-82
2022/10/02 01:36:15;;;;;;;;;;;11.90;99.90;;;;;;5114667;28;19926;-83
2022/10/02 01:38:41;;;;;;;;;;;11.90;99.90;;;;;;5114113;28;19969;-82
2022/10/02 01:41:08;;;;;;;;;;;11.90;99.90;;;;;;5113939;28;19915;-82
2022/10/02 01:43:36;;;;;;;;;;;11.90;99.90;;;;;;5114292;28;19919;-82
2022/10/02 01:46:26;;;;;;;;;;;11.90;99.90;;;;;;5114096;28;19929;-82
2022/10/02 01:49:16;;;;;;;;;;;11.90;99.90;;;;;;5114304;28;19916;-82
2022/10/02 01:51:54;;;;;;;;;;;11.90;99.90;;;;;;5114092;28;19933;-82
2022/10/02 01:54:20;;;;;;;;;;;11.90;99.90;;;;;;5113821;28;20410;-82
2022/10/02 01:56:51;;;;;;;;;;;11.90;99.90;;;;;;5114304;28;19954;-82
2022/10/02 01:59:23;;;;;;;;;;;11.90;99.90;;;;;;5096817;28;19923;-82
2022/10/02 02:02:04;;;;;;;;;;;12.00;99.90;;;;;;5096598;28;19955;-83
2022/10/02 02:04:36;;;;;;;;;;;12.00;99.90;;;;;;5097243;28;20386;-82
2022/10/02 02:07:03;;;;;;;;;;;12.00;99.90;;;;;;5098323;27;20015;-82
2022/10/02 02:09:37;;;;;;;;;;;12.00;99.90;;;;;;5116978;27;19915;-82
2022/10/02 02:12:11;;;;;;;;;;;12.00;99.90;;;;;;5117934;27;19915;-83
2022/10/02 02:14:40;;;;;;;;;;;12.00;99.90;;;;;;5117734;27;20561;-82
2022/10/02 02:17:21;;;;;;;;;;;12.00;99.90;;;;;;5117759;27;20352;-82
2022/10/02 02:19:52;;;;;;;;;;;12.00;99.90;;;;;;5117233;27;19923;-82
2022/10/02 02:22:21;;;;;;;;;;;12.00;99.90;;;;;;5117327;27;19916;-82
2022/10/02 02:24:51;;;;;;;;;;;12.00;99.90;;;;;;5117428;27;19926;-82
2022/10/02 02:27:20;;;;;;;;;;;12.00;99.90;;;;;;5117757;27;19929;-82
2022/10/02 02:29:46;;;;;;;;;;;12.00;99.90;;;;;;5117651;27;20284;-83
2022/10/02 02:32:14;;;;;;;;;;;12.00;99.90;;;;;;5117126;27;19919;-82
2022/10/02 02:34:43;;;;;;;;;;;12.00;99.90;;;;;;5117483;27;19960;-82
2022/10/02 02:37:10;;;;;;;;;;;11.90;99.90;;;;;;5100139;27;20448;-83
2022/10/02 02:39:42;;;;;;;;;;;11.90;99.90;;;;;;5116843;27;19919;-82
2022/10/02 02:42:08;;;;;;;;;;;11.90;99.90;;;;;;5116867;27;19921;-82
2022/10/02 02:44:39;;;;;;;;;;;11.90;99.90;;;;;;5117432;27;19922;-82
2022/10/02 02:47:12;;;;;;;;;;;11.80;99.90;;;;;;5117388;27;20014;-83
2022/10/02 02:49:46;;;;;;;;;;;11.90;99.90;;;;;;5116894;27;20022;-82
2022/10/02 02:52:17;;;;;;;;;;;11.80;99.90;;;;;;5099692;27;20326;-83
2022/10/02 02:55:03;;;;;;;;;;;11.80;99.90;;;;;;5099654;27;19915;-82
2022/10/02 02:57:34;;;;;;;;;;;11.80;99.90;;;;;;5102636;27;19923;-82
2022/10/02 03:00:01;;;;;;;;;;;11.80;99.90;;;;;;5099396;27;19927;-83
2022/10/02 03:02:26;;;;;;;;;;;11.80;99.90;;;;;;5099725;27;19916;-83
2022/10/02 03:04:52;;;;;;;;;;;11.80;99.90;;;;;;5135199;27;19922;-82
2022/10/02 03:07:17;;;;;;;;;;;11.80;99.90;;;;;;5116998;27;19915;-82
2022/10/02 03:09:55;;;;;;;;;;;11.80;99.90;;;;;;5116824;27;20364;-82
2022/10/02 03:12:44;;;;;;;;;;;11.80;99.90;;;;;;5116462;27;19923;-82
2022/10/02 03:15:09;;;;;;;;;;;11.80;99.90;;;;;;5105382;27;20395;-82
2022/10/02 03:17:41;;;;;;;;;;;11.80;99.90;;;;;;5099344;27;19915;-83
2022/10/02 03:20:15;;;;;;;;;;;11.80;99.90;;;;;;5115728;27;19920;-82
2022/10/02 03:23:04;;;;;;;;;;;11.80;99.90;;;;;;5115846;27;19954;-82
2022/10/02 03:25:45;;;;;;;;;;;11.70;99.90;;;;;;5116486;27;19922;-82
2022/10/02 03:28:14;;;;;;;;;;;11.70;99.90;;;;;;5116471;27;19915;-82
2022/10/02 03:30:41;;;;;;;;;;;11.70;99.90;;;;;;5116473;27;20265;-82
2022/10/02 03:33:07;;;;;;;;;;;11.70;99.90;;;;;;5116415;27;19983;-82
2022/10/02 03:35:33;;;;;;;;;;;11.60;99.90;;;;;;5116446;27;20000;-82
2022/10/02 03:38:01;;;;;;;;;;;11.60;99.90;;;;;;5115978;27;19961;-82
2022/10/02 03:40:26;;;;;;;;;;;11.50;99.90;;;;;;5115749;27;19919;-82
2022/10/02 03:42:52;;;;;;;;;;;11.50;99.90;;;;;;5115875;27;19920;-82
2022/10/02 03:45:18;;;;;;;;;;;11.50;99.90;;;;;;5115954;27;19915;-82
2022/10/02 03:47:43;;;;;;;;;;;11.50;99.90;;;;;;5116063;27;19997;-82
2022/10/02 03:50:12;;;;;;;;;;;11.50;99.90;;;;;;5115959;27;20315;-82
2022/10/02 03:52:38;;;;;;;;;;;11.40;99.90;;;;;;5098279;27;19915;-82
2022/10/02 03:55:11;;;;;;;;;;;11.40;99.90;;;;;;5115596;27;19968;-82
2022/10/02 03:57:36;;;;;;;;;;;11.40;99.90;;;;;;5116005;27;19915;-83
2022/10/02 04:00:02;;;;;;;;;;;11.40;99.90;;;;;;5115357;27;20421;-82
2022/10/02 04:02:34;;;;;;;;;;;11.40;99.90;;;;;;5115343;27;19915;-83
2022/10/02 04:05:03;;;;;;;;;;;11.40;99.90;;;;;;5115777;27;19956;-82
2022/10/02 04:07:34;;;;;;;;;;;11.30;99.90;;;;;;5115132;27;20013;-82
2022/10/02 04:10:00;;;;;;;;;;;11.30;99.90;;;;;;5115798;27;19915;-82
2022/10/02 04:12:33;;;;;;;;;;;11.30;99.90;;;;;;5115291;27;19976;-82
2022/10/02 04:15:06;;;;;;;;;;;11.30;99.90;;;;;;5115213;27;19964;-82
2022/10/02 04:17:35;;;;;;;;;;;11.30;99.90;;;;;;5115377;27;19916;-82
2022/10/02 04:20:04;;;;;;;;;;;11.20;99.90;;;;;;5115293;27;19919;-82
2022/10/02 04:22:36;;;;;;;;;;;11.20;99.90;;;;;;5114815;27;20007;-82
2022/10/02 04:25:07;;;;;;;;;;;11.20;99.90;;;;;;5115632;27;19922;-82
2022/10/02 04:27:41;;;;;;;;;;;11.20;99.90;;;;;;5115513;27;19983;-82
2022/10/02 04:30:12;;;;;;;;;;;11.20;99.90;;;;;;5114795;27;19954;-82
2022/10/02 04:32:38;;;;;;;;;;;11.20;99.90;;;;;;5114740;27;19915;-82
2022/10/02 04:35:19;;;;;;;;;;;11.20;99.90;;;;;;5133684;27;19915;-82
2022/10/02 04:37:48;;;;;;;;;;;11.10;99.90;;;;;;5114860;27;19916;-82
2022/10/02 04:40:32;;;;;;;;;;;11.10;99.90;;;;;;5097966;27;19971;-82
2022/10/02 04:43:06;;;;;;;;;;;11.20;99.90;;;;;;5114415;27;19965;-82
2022/10/02 04:45:40;;;;;;;;;;;11.20;99.90;;;;;;5114571;27;19959;-82
2022/10/02 04:48:12;;;;;;;;;;;11.20;99.90;;;;;;5115141;27;20289;-82
2022/10/02 04:51:00;;;;;;;;;;;11.20;99.90;;;;;;5115343;27;19915;-82
2022/10/02 04:53:29;;;;;;;;;;;11.20;99.90;;;;;;5114618;27;19922;-82
2022/10/02 04:56:00;;;;;;;;;;;11.20;99.90;;;;;;5133267;27;20371;-82
2022/10/02 04:58:36;;;;;;;;;;;11.20;99.90;;;;;;5132807;27;19915;-82
2022/10/02 05:01:21;;;;;;;;;;;11.20;99.90;;;;;;5132895;27;19922;-82
2022/10/02 05:04:05;;;;;;;;;;;11.20;99.90;;;;;;5114943;28;19938;-82
2022/10/02 05:06:30;;;;;;;;;;;11.20;99.90;;;;;;5133008;27;19961;-82
2022/10/02 05:09:01;;;;;;;;;;;11.20;99.90;;;;;;5114959;27;19919;-82
2022/10/02 05:11:26;;;;;;;;;;;11.20;99.90;;;;;;5114749;28;19916;-82
2022/10/02 05:14:02;;;;;;;;;;;11.20;99.90;;;;;;5114376;28;19916;-82
2022/10/02 05:16:36;;;;;;;;;;;11.20;99.90;;;;;;5114567;28;19919;-82
2022/10/02 05:19:16;;;;;;;;;;;11.20;99.90;;;;;;5097766;28;19960;-82
2022/10/02 05:21:57;;;;;;;;;;;11.20;99.90;;;;;;5113741;28;19998;-82
2022/10/02 05:24:23;;;;;;;;;;;11.20;99.90;;;;;;5097902;28;19916;-82
2022/10/02 05:27:05;;;;;;;;;;;11.20;99.90;;;;;;5114568;28;20380;-82
2022/10/02 05:29:48;;;;;;;;;;;11.30;99.90;;;;;;5113438;28;19915;-82
2022/10/02 05:32:32;;;;;;;;;;;11.20;99.90;;;;;;5097148;28;20372;-82
2022/10/02 05:35:16;;;;;;;;;;;11.30;99.90;;;;;;5114384;28;19970;-82
2022/10/02 05:38:08;;;;;;;;;;;11.30;99.90;;;;;;5114360;28;20027;-82
2022/10/02 05:40:59;;;;;;;;;;;11.30;99.90;;;;;;5113811;28;19919;-82
2022/10/02 05:43:27;;;;;;;;;;;11.40;99.90;;;;;;5117183;27;20009;-82
2022/10/02 05:46:02;;;;;;;;;;;11.30;99.90;;;;;;5102296;27;19922;-82
2022/10/02 05:48:32;;;;;;;;;;;11.30;99.90;;;;;;5138244;27;19919;-82
2022/10/02 05:51:00;;;;;;;;;;;11.30;99.90;;;;;;5120556;27;20333;-82
2022/10/02 05:53:49;;;;;;;;;;;11.40;99.90;;;;;;5120789;27;19992;-82
2022/10/02 05:56:37;;;;;;;;;;;11.40;99.90;;;;;;5124662;27;20372;-82
2022/10/02 05:59:12;;;;;;;;;;;11.40;99.90;;;;;;5137546;27;19930;-82
2022/10/02 06:01:40;;;;;;;;;;;11.40;99.90;;;;;;5137139;27;19922;-82
2022/10/02 06:04:10;;;;;;;;;;;11.40;99.90;;;;;;5138325;27;19914;-82
2022/10/02 06:06:38;;;;;;;;;;;11.50;99.90;;;;;;5137488;27;19988;-82
2022/10/02 06:09:09;;;;;;;;;;;11.50;99.90;;;;;;5156711;27;20044;-82
2022/10/02 06:11:53;;;;;;;;;;;11.40;99.90;;;;;;5137383;27;19915;-82
2022/10/02 06:14:26;;;;;;;;;;;11.40;99.90;;;;;;5137635;27;19923;-82
2022/10/02 06:17:10;;;;;;;;;;;11.40;99.90;;;;;;5137558;27;19922;-82
2022/10/02 06:19:35;;;;;;;;;;;11.50;99.90;;;;;;5120428;27;20545;-82
2022/10/02 06:22:11;;;;;;;;;;;11.50;99.90;;;;;;5120160;27;19922;-82
2022/10/02 06:24:46;;;;;;;;;;;11.50;99.90;;;;;;5120563;27;19992;-82
2022/10/02 06:27:31;;;;;;;;;;;11.50;99.90;;;;;;5136930;27;19915;-82
2022/10/02 06:29:58;;;;;;;;;;;11.50;99.90;;;;;;5137499;27;19915;-82
2022/10/02 06:32:31;;;;;;;;;;;11.50;99.90;;;;;;5137660;27;19914;-82
2022/10/02 06:34:56;;;;;;;;;;;11.60;99.90;;;;;;5137510;27;19915;-82
2022/10/02 06:37:37;;;;;;;;;;;11.60;99.90;;;;;;5137844;27;19921;-82
2022/10/02 06:40:21;;;;;;;;;;;11.60;99.90;;;;;;5136641;27;19966;-82
2022/10/02 06:43:02;;;;;;;;;;;11.70;99.90;;;;;;5136952;27;20362;-82
2022/10/02 06:45:31;;;;;;;;;;;11.80;99.90;;;;;;5120062;27;20313;-82
2022/10/02 06:48:04;;;;;;;;;;;11.80;99.90;;;;;;5136808;27;19922;-82
2022/10/02 06:50:35;;;;;;;;;;;11.90;99.90;;;;;;5136293;27;19921;-82
2022/10/02 06:53:04;;;;;;;;;;;11.90;99.90;;;;;;5136148;27;19922;-82
2022/10/02 06:55:48;;;;;;;;;;;12.00;99.90;;;;;;5136914;27;19976;-82
2022/10/02 06:58:13;;;;;;;;;;;12.10;99.90;;;;;;5136778;27;19960;-82
2022/10/02 07:00:45;;;;;;;;;;;12.20;99.90;;;;;;5136323;27;19926;-82
2022/10/02 07:03:18;;;;;;;;;;;12.20;99.90;;;;;;5136979;27;19966;-82
2022/10/02 07:05:44;;;;;;;;;;;12.30;99.90;;;;;;5136404;27;19962;-82
2022/10/02 07:08:28;;;;;;;;;;;12.30;99.90;;;;;;5119896;27;19954;-82
2022/10/02 07:10:57;;;;;;;;;;;12.40;99.90;;;;;;5119158;27;19964;-82
2022/10/02 07:13:22;;;;;;;;;;;12.50;99.90;;;;;;5136636;27;19915;-82
2022/10/02 07:16:07;;;;;;;;;;;12.50;99.90;;;;;;5119570;27;19922;-82
2022/10/02 07:18:45;;;;;;;;;;;12.60;99.90;;;;;;5119539;27;20372;-83
2022/10/02 07:21:20;;;;;;;;;;;12.70;99.90;;;;;;5136145;27;20317;-82
2022/10/02 07:23:58;;;;;;;;;;;12.80;99.90;;;;;;5136834;27;19948;-82
2022/10/02 07:26:23;;;;;;;;;;;12.90;99.90;;;;;;5119477;27;19915;-83
2022/10/02 07:28:53;;;;;;;;;;;12.90;99.90;;;;;;5136497;27;20288;-83
2022/10/02 07:31:24;;;;;;;;;;;13.00;99.90;;;;;;5136183;27;20275;-83
2022/10/02 07:34:05;;;;;;;;;;;13.10;99.90;;;;;;5135897;27;20334;-83
2022/10/02 07:36:34;;;;;;;;;;;13.20;99.90;;;;;;5136538;27;19922;-83
2022/10/02 07:39:04;;;;;;;;;;;13.20;99.90;;;;;;5136351;27;19926;-83
2022/10/02 07:41:45;;;;;;;;;;;13.30;99.90;;;;;;5135089;27;20480;-82
2022/10/02 07:44:19;;;;;;;;;;;13.40;99.90;;;;;;5118979;27;19952;-83
2022/10/02 07:46:45;;;;;;;;;;;13.50;99.90;;;;;;5134426;27;19948;-82
2022/10/02 07:49:29;;;;;;;;;;;13.60;99.90;;;;;;5135691;27;19915;-83
2022/10/02 07:51:55;;;;;;;;;;;13.70;99.90;;;;;;5135634;27;19915;-82
2022/10/02 07:54:42;;;;;;;;;;;13.80;99.90;;;;;;5136025;27;19928;-82
2022/10/02 07:57:26;;;;;;;;;;;13.90;99.90;;;;;;5118758;27;20003;-82
2022/10/02 07:59:56;;;;;;;;;;;14.00;99.90;;;;;;5135761;27;19919;-82
2022/10/02 08:02:45;;;;;;;;;;;14.10;99.90;;;;;;5135532;27;19915;-82
2022/10/02 08:05:15;;;;;;;;;;;14.20;99.90;;;;;;5087601;27;19964;-82
2022/10/02 08:07:42;;;;;;;;;;;14.30;99.90;;;;;;5118377;27;19926;-82
2022/10/02 08:10:09;;;;;;;;;;;14.30;99.90;;;;;;5135475;27;19914;-82
2022/10/02 08:12:45;;;;;;;;;;;14.30;99.90;;;;;;5134995;27;20431;-82
2022/10/02 08:15:14;;;;;;;;;;;14.30;99.90;;;;;;5154328;27;19915;-82
2022/10/02 08:17:57;;;;;;;;;;;14.40;99.90;;;;;;5118287;27;19925;-82
2022/10/02 08:20:30;;;;;;;;;;;14.40;99.90;;;;;;5135689;27;19965;-82
2022/10/02 08:23:14;;;;;;;;;;;14.50;99.90;;;;;;5131938;27;19919;-82
2022/10/02 08:25:47;;;;;;;;;;;14.50;99.90;;;;;;5122810;27;19926;-83
2022/10/02 08:28:29;;;;;;;;;;;14.60;99.90;;;;;;5126762;27;19923;-83
2022/10/02 08:30:55;;;;;;;;;;;14.70;99.90;;;;;;5135309;27;19915;-83
2022/10/02 08:33:21;;;;;;;;;;;14.80;99.90;;;;;;5118224;27;19915;-83
2022/10/02 08:35:59;;;;;;;;;;;14.90;99.90;;;;;;5135986;27;20322;-83
2022/10/02 08:38:44;;;;;;;;;;;15.00;99.90;;;;;;5118298;27;20098;-83
2022/10/02 08:41:32;;;;;;;;;;;15.00;99.90;;;;;;5134946;27;20344;-83
2022/10/02 08:44:10;;;;;;;;;;;15.10;99.90;;;;;;5121786;27;19963;-83
2022/10/02 08:46:57;;;;;;;;;;;15.20;99.90;;;;;;5135578;27;19951;-82
2022/10/02 08:49:28;;;;;;;;;;;15.20;99.90;;;;;;5135270;27;19915;-83
2022/10/02 08:52:00;;;;;;;;;;;15.30;99.90;;;;;;5134601;27;19915;-83
2022/10/02 08:54:45;;;;;;;;;;;15.30;99.90;;;;;;5135381;27;19920;-83
2022/10/02 08:57:29;;;;;;;;;;;15.40;99.90;;;;;;5134854;27;20356;-83
2022/10/02 09:00:11;;;;;;;;;;;15.50;99.90;;;;;;5117375;27;20022;-83
2022/10/02 09:02:43;;;;;;;;;;;15.50;99.90;;;;;;5134862;27;19915;-83
2022/10/02 09:05:08;;;;;;;;;;;15.70;99.90;;;;;;5135261;27;19953;-83
2022/10/02 09:07:46;;;;;;;;;;;15.70;99.90;;;;;;5153536;27;19950;-83
2022/10/02 09:10:30;;;;;;;;;;;15.80;99.90;;;;;;5135035;27;19944;-83
2022/10/02 09:13:18;;;;;;;;;;;15.90;99.90;;;;;;5135123;27;19914;-83
2022/10/02 09:15:50;;;;;;;;;;;15.90;99.90;;;;;;5118435;27;20364;-83
2022/10/02 09:18:25;;;;;;;;;;;16.00;99.90;;;;;;5134103;27;20015;-83
2022/10/02 09:20:54;;;;;;;;;;;16.10;99.90;;;;;;5134745;27;19919;-83
2022/10/02 09:23:28;;;;;;;;;;;16.20;99.90;;;;;;5134926;27;19993;-83
2022/10/02 09:25:54;;;;;;;;;;;16.10;99.90;;;;;;5134776;27;20372;-83
2022/10/02 09:28:25;;;;;;;;;;;16.20;99.90;;;;;;5135526;27;20006;-83
2022/10/02 09:31:01;;;;;;;;;;;16.30;99.90;;;;;;5134294;27;19919;-83
2022/10/02 09:33:30;;;;;;;;;;;16.30;99.90;;;;;;5134764;27;20391;-83
2022/10/02 09:36:10;;;;;;;;;;;16.30;99.90;;;;;;5134880;27;20391;-83
2022/10/02 09:38:44;;;;;;;;;;;16.30;99.90;;;;;;5134759;27;19915;-83
2022/10/02 09:41:19;;;;;;;;;;;16.50;99.90;;;;;;5116573;27;19931;-83
2022/10/02 09:44:00;;;;;;;;;;;16.50;99.90;;;;;;5116988;28;20006;-83
2022/10/02 09:46:43;;;;;;;;;;;16.60;99.90;;;;;;5113398;28;20401;-83
2022/10/02 09:49:27;;;;;;;;;;;16.70;99.90;;;;;;5096494;28;20311;-83
2022/10/02 09:52:12;;;;;;;;;;;16.70;99.90;;;;;;5113400;28;20368;-83
2022/10/02 09:54:51;;;;;;;;;;;16.70;99.90;;;;;;5112951;28;20013;-83
2022/10/02 09:57:47;;;;;;;;;;;16.80;99.90;;;;;;5113766;28;20384;-83
2022/10/02 10:00:16;;;;;;;;;;;16.70;99.90;;;;;;5113424;28;19926;-83
2022/10/02 10:02:48;;;;;;;;;;;16.80;99.90;;;;;;5096236;28;19915;-83
2022/10/02 10:05:16;;;;;;;;;;;16.80;99.90;;;;;;5096814;28;20332;-83
2022/10/02 10:08:03;;;;;;;;;;;16.80;99.90;;;;;;5113841;28;20402;-83
2022/10/02 10:10:32;;;;;;;;;;;16.90;99.90;;;;;;5113158;28;19967;-83
2022/10/02 10:13:07;;;;;;;;;;;16.90;99.90;;;;;;5112987;28;19962;-83
2022/10/02 10:15:39;;;;;;;;;;;16.90;99.90;;;;;;5112986;28;19915;-83
2022/10/02 10:18:14;;;;;;;;;;;16.90;99.90;;;;;;5113275;28;19970;-83
2022/10/02 10:20:52;;;;;;;;;;;17.00;99.90;;;;;;5113175;28;19923;-83
2022/10/02 10:23:36;;;;;;;;;;;17.00;99.90;;;;;;5113373;28;19916;-83
2022/10/02 10:26:08;;;;;;;;;;;17.00;99.90;;;;;;5113289;28;19916;-83
2022/10/02 10:28:53;;;;;;;;;;;17.10;99.90;;;;;;5115388;27;19923;-83
2022/10/02 10:31:30;;;;;;;;;;;17.30;99.90;;;;;;5099864;27;19980;-83
2022/10/02 10:34:14;;;;;;;;;;;17.50;99.90;;;;;;5099974;27;19926;-83
2022/10/02 10:39:52;;;;;;;;;;;17.70;99.90;;;;;;5116274;27;20368;-83
2022/10/02 10:42:32;;;;;;;;;;;17.70;99.90;;;;;;5116946;27;20272;-83
2022/10/02 10:45:07;;;;;;;;;;;17.70;99.90;;;;;;5115451;27;19915;-83
2022/10/02 10:47:33;;;;;;;;;;;17.90;99.90;;;;;;5098694;27;20415;-83
2022/10/02 10:50:17;;;;;;;;;;;18.00;99.90;;;;;;5135216;27;20065;-83
2022/10/02 10:52:59;;;;;;;;;;;18.10;99.90;;;;;;5116729;27;19923;-83
2022/10/02 10:55:44;;;;;;;;;;;18.20;99.90;;;;;;5116755;27;19922;-83
2022/10/02 10:58:24;;;;;;;;;;;18.10;99.90;;;;;;5117113;27;20495;-83
2022/10/02 11:01:10;;;;;;;;;;;18.00;99.90;;;;;;5116897;27;19966;-83
2022/10/02 11:03:44;;;;;;;;;;;18.00;99.90;;;;;;5082613;27;19972;-83
2022/10/02 11:06:26;;;;;;;;;;;18.10;99.90;;;;;;5116889;27;19964;-83
2022/10/02 11:09:09;;;;;;;;;;;18.10;99.90;;;;;;5116393;27;19919;-83
2022/10/02 11:11:35;;;;;;;;;;;18.20;99.90;;;;;;5116424;27;19961;-83
2022/10/02 11:14:22;;;;;;;;;;;18.20;99.90;;;;;;5116965;27;19958;-83
2022/10/02 11:16:54;;;;;;;;;;;18.30;99.90;;;;;;5116593;27;19960;-83
2022/10/02 11:19:27;;;;;;;;;;;18.50;99.90;;;;;;5099275;27;20369;-83
2022/10/02 11:22:01;;;;;;;;;;;18.60;99.90;;;;;;5116146;27;20475;-83
2022/10/02 11:24:47;;;;;;;;;;;18.60;99.90;;;;;;5099297;27;19922;-83
2022/10/02 11:27:23;;;;;;;;;;;18.70;99.90;;;;;;5099284;27;20392;-83
2022/10/02 11:29:58;;;;;;;;;;;18.70;99.90;;;;;;5134656;27;19916;-83
2022/10/02 11:32:43;;;;;;;;;;;18.70;99.90;;;;;;5098838;27;19915;-83
2022/10/02 11:35:30;;;;;;;;;;;18.70;99.90;;;;;;5115872;27;19915;-84
2022/10/02 11:38:02;;;;;;;;;;;18.80;99.90;;;;;;5115963;27;19915;-83
2022/10/02 11:40:28;;;;;;;;;;;18.90;99.90;;;;;;5115251;27;19955;-83
2022/10/02 11:43:18;;;;;;;;;;;19.00;99.90;;;;;;5115896;27;19965;-83
2022/10/02 11:45:58;;;;;;;;;;;19.00;99.90;;;;;;5115752;27;19926;-83
2022/10/02 11:48:26;;;;;;;;;;;19.00;99.90;;;;;;5115993;27;19915;-83
2022/10/02 11:50:51;;;;;;;;;;;19.10;99.90;;;;;;5115485;27;19915;-84
2022/10/02 11:53:21;;;;;;;;;;;19.10;99.90;;;;;;5115278;27;19922;-84
2022/10/02 11:56:03;;;;;;;;;;;19.00;99.90;;;;;;5101574;27;19923;-84
2022/10/02 11:58:43;;;;;;;;;;;18.90;99.90;;;;;;5116203;27;20315;-83
2022/10/02 12:01:21;;;;;;;;;;;18.80;99.90;;;;;;5114558;27;19920;-83
2022/10/02 12:03:47;;;;;;;;;;;18.60;99.90;;;;;;5115741;27;19919;-83
2022/10/02 12:06:16;;;;;;;;;;;18.50;99.90;;;;;;5098625;27;19915;-83
2022/10/02 12:08:56;;;;;;;;;;;18.50;99.90;;;;;;5132571;27;19959;-82
2022/10/02 12:11:32;;;;;;;;;;;18.40;99.90;;;;;;5133633;27;19944;-82
2022/10/02 12:14:03;;;;;;;;;;;18.40;99.90;;;;;;5115688;27;19922;-82
2022/10/02 12:16:28;;;;;;;;;;;18.50;99.90;;;;;;5115538;27;19922;-82
2022/10/02 12:19:13;;;;;;;;;;;18.50;99.90;;;;;;5096156;27;19998;-82
2022/10/02 12:28:15;;;;;;;;;;;19.20;99.90;;;;;;5015353;28;20393;-82
2022/10/02 12:30:48;;;;;;;;;;;19.40;99.90;;;;;;5097110;27;20400;-82
2022/10/02 12:33:26;;;;;;;;;;;19.70;99.90;;;;;;5114513;27;19916;-82
2022/10/02 12:36:05;;;;;;;;;;;19.90;99.90;;;;;;5097717;27;19922;-82
2022/10/02 12:38:31;;;;;;;;;;;20.10;99.90;;;;;;5114340;27;19926;-82
2022/10/02 12:41:07;;;;;;;;;;;20.30;99.90;;;;;;5113735;27;19920;-82
2022/10/02 12:43:52;;;;;;;;;;;20.40;99.90;;;;;;5114833;27;20328;-82
2022/10/02 12:46:38;;;;;;;;;;;20.40;99.90;;;;;;5097407;27;19922;-82
2022/10/02 12:49:11;;;;;;;;;;;20.60;99.90;;;;;;5114844;27;20372;-82
2022/10/02 12:51:42;;;;;;;;;;;20.70;99.30;;;;;;5113074;27;20044;-82
2022/10/02 12:54:17;;;;;;;;;;;21.10;99.90;;;;;;5097073;27;19920;-82
2022/10/02 12:56:50;;;;;;;;;;;21.60;98.20;;;;;;5097484;27;19915;-82
2022/10/02 12:59:28;;;;;;;;;;;22.30;97.80;;;;;;5113801;27;19923;-82
2022/10/02 13:02:05;;;;;;;;;;;22.50;90.60;;;;;;5114024;27;19922;-82
2022/10/02 13:04:46;;;;;;;;;;;22.90;86.70;;;;;;5114002;28;20381;-82
2022/10/02 13:07:15;;;;;;;;;;;23.40;83.50;;;;;;5096666;28;19916;-82
2022/10/02 13:09:58;;;;;;;;;;;24.30;76.80;;;;;;5113615;27;19919;-82
2022/10/02 13:12:43;;;;;;;;;;;24.20;70.00;;;;;;5113663;28;19968;-82
2022/10/02 13:15:08;;;;;;;;;;;23.90;68.70;;;;;;5113967;28;19915;-83
2022/10/02 13:17:45;;;;;;;;;;;23.50;68.40;;;;;;5096822;28;20291;-83
2022/10/02 13:20:29;;;;;;;;;;;23.40;74.60;;;;;;5113825;28;20380;-82
2022/10/02 13:23:04;;;;;;;;;;;24.70;75.30;;;;;;5113324;28;19988;-83
2022/10/02 13:25:34;;;;;;;;;;;26.30;67.70;;;;;;5132331;28;20502;-83
2022/10/02 13:28:12;;;;;;;;;;;27.60;60.40;;;;;;5114037;28;19919;-83
2022/10/02 13:31:01;;;;;;;;;;;28.40;57.00;;;;;;5112959;28;20431;-83
2022/10/02 13:33:46;;;;;;;;;;;28.70;55.80;;;;;;5097054;28;19983;-83
2022/10/02 13:36:11;;;;;;;;;;;29.30;53.90;;;;;;5096974;28;19915;-83
2022/10/02 13:38:43;;;;;;;;;;;30.00;53.20;;;;;;5113557;28;19916;-83
2022/10/02 13:41:29;;;;;;;;;;;30.60;52.90;;;;;;5139570;27;19967;-83
2022/10/02 13:43:54;;;;;;;;;;;30.80;48.70;;;;;;5102427;27;20116;-83
2022/10/02 13:46:27;;;;;;;;;;;30.90;49.70;;;;;;5124469;27;20360;-83
2022/10/02 13:49:12;;;;;;;;;;;30.40;47.50;;;;;;5143314;27;19930;-83
2022/10/02 13:51:46;;;;;;;;;;;29.70;47.40;;;;;;5121388;27;19915;-83
2022/10/02 13:54:19;;;;;;;;;;;29.40;48.10;;;;;;5123003;27;19915;-83
2022/10/02 13:57:00;;;;;;;;;;;28.50;47.60;;;;;;5121061;27;19915;-83
2022/10/02 13:59:31;;;;;;;;;;;27.70;49.50;;;;;;5119569;27;19924;-83
2022/10/02 14:02:05;;;;;;;;;;;27.30;51.10;;;;;;5105427;27;19923;-83
2022/10/02 14:04:40;;;;;;;;;;;26.90;51.50;;;;;;5109571;27;19954;-83
2022/10/02 14:07:16;;;;;;;;;;;26.20;52.50;;;;;;5106510;27;19934;-83
2022/10/02 14:09:41;;;;;;;;;;;25.50;52.90;;;;;;5124200;27;19926;-83
2022/10/02 14:12:19;;;;;;;;;;;24.80;55.60;;;;;;5126966;27;19915;-83
2022/10/02 14:15:03;;;;;;;;;;;24.20;56.30;;;;;;5123134;27;19961;-83
2022/10/02 14:18:01;;;;;;;;;;;24.00;59.30;;;;;;5127727;27;20292;-83
2022/10/02 14:20:33;;;;;;;;;;;24.00;58.50;;;;;;5095592;27;19926;-83
2022/10/02 14:23:17;;;;;;;;;;;24.60;61.10;;;;;;5126156;27;19919;-83
2022/10/02 14:25:47;;;;;;;;;;;25.60;58.50;;;;;;5125895;27;20122;-83
2022/10/02 14:28:31;;;;;;;;;;;26.50;56.20;;;;;;5120459;27;19955;-83
2022/10/02 14:31:24;;;;;;;;;;;27.30;55.40;;;;;;5137844;27;19915;-83
2022/10/02 14:33:53;;;;;;;;;;;27.70;54.30;;;;;;5156886;27;19915;-83
2022/10/02 14:36:39;;;;;;;;;;;27.50;52.00;;;;;;5137892;27;20313;-83
2022/10/02 14:39:23;;;;;;;;;;;27.30;51.80;;;;;;5137832;27;20392;-83
2022/10/02 14:42:07;;;;;;;;;;;27.00;51.60;;;;;;5137176;27;19942;-83
2022/10/02 14:44:39;;;;;;;;;;;26.60;53.00;;;;;;5156332;27;20386;-83
2022/10/02 14:47:20;;;;;;;;;;;26.50;52.60;;;;;;5138092;27;20283;-83
2022/10/02 14:50:02;;;;;;;;;;;26.40;51.90;;;;;;5156040;27;19922;-83
2022/10/02 14:52:47;;;;;;;;;;;26.30;51.70;;;;;;5137158;27;20444;-83
2022/10/02 14:55:18;;;;;;;;;;;26.00;52.40;;;;;;5137762;27;19962;-83
2022/10/02 14:58:03;;;;;;;;;;;25.70;53.50;;;;;;5137262;27;20443;-83
2022/10/02 15:00:36;;;;;;;;;;;25.30;52.70;;;;;;5146220;27;19927;-83
2022/10/02 15:03:04;;;;;;;;;;;25.40;53.50;;;;;;5144967;27;19915;-83
2022/10/02 15:05:30;;;;;;;;;;;25.20;53.00;;;;;;5127479;27;19915;-83
2022/10/02 15:07:56;;;;;;;;;;;24.90;53.20;;;;;;5125802;27;19926;-83
2022/10/02 15:10:25;;;;;;;;;;;24.90;54.40;;;;;;5126418;27;19915;-83